Time;durP1;ratioP1;P1;durP2;ratioP2;P2;SDS_P1;SDS_P2;PMS_P1;PMS_P2;Temp;Humidity;BMP_temperature;BMP_pressure;BME280_temperature;BME280_humidity;BME280_pressure;Samples;Min_cycle;Max_cycle;Signal;HPM_P1;HPM_P2
2024/02/27 00:01:56;;;;;;;;;;;;;;;8.81;87.37;98957.53;5117416;28;19924;-68
2024/02/27 00:04:25;;;;;;;;;;;;;;;8.75;88.00;98960.97;5117208;28;19924;-69
2024/02/27 00:06:55;;;;;;;;;;;;;;;8.71;87.98;98966.06;5117175;28;19923;-69
2024/02/27 00:09:26;;;;;;;;;;;;;;;8.73;87.85;98962.66;5117195;28;19968;-69
2024/02/27 00:11:54;;;;;;;;;;;;;;;8.71;88.27;98963.50;5116584;28;19924;-69
2024/02/27 00:14:23;;;;;;;;;;;;;;;8.70;87.74;98961.84;5098777;28;19924;-68
2024/02/27 00:16:51;;;;;;;;;;;;;;;8.69;88.09;98957.59;5116664;28;19967;-68
2024/02/27 00:19:20;;;;;;;;;;;;;;;8.67;88.68;98964.38;5116927;28;19931;-68
2024/02/27 00:21:48;;;;;;;;;;;;;;;8.68;88.29;98966.09;5116835;28;19968;-68
2024/02/27 00:24:17;;;;;;;;;;;;;;;8.72;88.35;98967.75;5116789;28;19968;-69
2024/02/27 00:26:47;;;;;;;;;;;;;;;8.72;88.68;98973.69;5116356;28;20042;-68
2024/02/27 00:29:18;;;;;;;;;;;;;;;8.68;89.06;98966.94;5098500;28;19924;-68
2024/02/27 00:31:46;;;;;;;;;;;;;;;8.67;89.18;98969.47;5116371;28;20292;-68
2024/02/27 00:34:15;;;;;;;;;;;;;;;8.70;88.92;98957.59;5116366;28;19923;-69
2024/02/27 00:36:44;;;;;;;;;;;;;;;8.74;88.70;98956.72;5116926;28;19961;-68
2024/02/27 00:39:14;;;;;;;;;;;;;;;8.77;89.30;98960.94;5098075;28;20274;-69
2024/02/27 00:41:46;;;;;;;;;;;;;;;8.79;89.17;98966.88;5098151;28;20301;-69
2024/02/27 00:44:17;;;;;;;;;;;;;;;8.80;89.63;98976.22;5116216;28;19927;-69
2024/02/27 00:46:46;;;;;;;;;;;;;;;8.83;89.74;98983.81;5098565;28;19923;-69
2024/02/27 00:49:14;;;;;;;;;;;;;;;8.89;90.07;98988.88;5116622;28;20272;-69
2024/02/27 00:51:43;;;;;;;;;;;;;;;8.91;89.32;98992.25;5116334;28;19923;-68
2024/02/27 00:54:11;;;;;;;;;;;;;;;8.94;89.78;98989.69;5097728;28;20381;-69
2024/02/27 00:56:40;;;;;;;;;;;;;;;8.96;89.54;98985.44;5116121;28;19924;-68
2024/02/27 00:59:08;;;;;;;;;;;;;;;9.01;89.67;98982.88;5097715;28;20284;-68
2024/02/27 01:01:38;;;;;;;;;;;;;;;9.04;89.86;98991.34;5098267;28;19969;-69
2024/02/27 01:04:07;;;;;;;;;;;;;;;9.09;90.41;98993.84;5116038;28;19924;-68
2024/02/27 01:06:35;;;;;;;;;;;;;;;9.10;90.20;98990.44;5116317;28;19924;-69
2024/02/27 01:09:04;;;;;;;;;;;;;;;9.09;90.20;98994.72;5114851;28;19924;-68
2024/02/27 01:11:32;;;;;;;;;;;;;;;9.08;90.17;98993.00;5097219;28;19924;-68
2024/02/27 01:14:01;;;;;;;;;;;;;;;9.06;90.45;98997.25;5097525;28;19973;-68
2024/02/27 01:16:29;;;;;;;;;;;;;;;9.07;90.43;98993.03;5097547;28;19923;-69
2024/02/27 01:19:00;;;;;;;;;;;;;;;9.05;90.39;98998.09;5115771;28;19984;-68
2024/02/27 01:21:28;;;;;;;;;;;;;;;9.05;90.61;98999.81;5115410;28;19924;-69
2024/02/27 01:23:58;;;;;;;;;;;;;;;9.02;90.64;98989.66;5115553;28;19977;-68
2024/02/27 01:26:27;;;;;;;;;;;;;;;9.02;90.51;99000.66;5097023;28;20366;-68
2024/02/27 01:28:55;;;;;;;;;;;;;;;9.00;91.00;98994.75;5115602;28;19928;-69
2024/02/27 01:31:24;;;;;;;;;;;;;;;8.97;90.62;98983.75;5131098;27;19973;-69
2024/02/27 01:33:52;;;;;;;;;;;;;;;8.94;90.57;98984.59;5115055;28;19927;-69
2024/02/27 01:36:22;;;;;;;;;;;;;;;8.90;90.86;98990.56;5115461;28;19924;-68
2024/02/27 01:38:51;;;;;;;;;;;;;;;8.86;91.30;98981.25;5116016;28;19949;-68
2024/02/27 01:41:20;;;;;;;;;;;;;;;8.86;91.41;98975.31;5114972;28;19931;-68
2024/02/27 01:43:48;;;;;;;;;;;;;;;8.85;90.65;98978.72;5115224;28;19924;-69
2024/02/27 01:46:19;;;;;;;;;;;;;;;8.87;91.32;98982.09;5115207;28;20341;-69
2024/02/27 01:48:47;;;;;;;;;;;;;;;8.84;90.93;98977.88;5115312;28;19931;-69
2024/02/27 01:51:16;;;;;;;;;;;;;;;8.84;91.43;98977.88;5115052;28;19977;-68
2024/02/27 01:53:49;;;;;;;;;;;;;;;8.83;91.69;98981.25;5130945;27;19924;-69
2024/02/27 01:56:18;;;;;;;;;;;;;;;8.80;90.93;98981.28;5115223;28;20027;-69
2024/02/27 01:58:47;;;;;;;;;;;;;;;8.82;91.08;98988.91;5115062;28;19924;-68
2024/02/27 02:01:15;;;;;;;;;;;;;;;8.81;91.06;98988.06;5115459;28;19924;-68
2024/02/27 02:03:45;;;;;;;;;;;;;;;8.80;91.42;98991.47;5115001;28;19949;-68
2024/02/27 02:06:14;;;;;;;;;;;;;;;8.81;91.36;98988.06;5114993;28;20036;-68
2024/02/27 02:08:43;;;;;;;;;;;;;;;8.83;91.88;98986.34;5115147;28;20034;-68
2024/02/27 02:11:12;;;;;;;;;;;;;;;8.83;91.95;98983.81;5114791;28;19924;-69
2024/02/27 02:13:41;;;;;;;;;;;;;;;8.88;91.16;98982.09;5115448;28;19924;-68
2024/02/27 02:16:09;;;;;;;;;;;;;;;8.89;91.49;98981.25;5114388;28;19924;-69
2024/02/27 02:18:38;;;;;;;;;;;;;;;8.89;91.29;98982.94;5114814;28;19928;-68
2024/02/27 02:21:08;;;;;;;;;;;;;;;8.87;91.45;98988.03;5096385;28;19965;-69
2024/02/27 02:23:37;;;;;;;;;;;;;;;8.85;91.43;98974.50;5115023;28;19924;-68
2024/02/27 02:26:05;;;;;;;;;;;;;;;8.87;91.23;98980.41;5114172;28;19930;-68
2024/02/27 02:28:34;;;;;;;;;;;;;;;8.88;91.34;98979.53;5114364;28;19923;-68
2024/02/27 02:31:02;;;;;;;;;;;;;;;8.90;91.65;98988.00;5114449;28;20022;-68
2024/02/27 02:33:31;;;;;;;;;;;;;;;8.93;91.70;98984.59;5114682;28;19985;-69
2024/02/27 02:35:59;;;;;;;;;;;;;;;8.96;92.20;98985.44;5130299;28;20015;-69
2024/02/27 02:38:29;;;;;;;;;;;;;;;8.95;91.32;98993.91;5114603;28;20019;-69
2024/02/27 02:40:58;;;;;;;;;;;;;;;8.98;91.19;98991.38;5114483;28;19924;-69
2024/02/27 02:43:26;;;;;;;;;;;;;;;9.02;92.13;98993.03;5096423;28;19924;-69
2024/02/27 02:45:55;;;;;;;;;;;;;;;9.06;92.34;98999.81;5114406;28;19977;-68
2024/02/27 02:48:23;;;;;;;;;;;;;;;9.09;91.55;98999.81;5096466;28;19927;-69
2024/02/27 02:50:52;;;;;;;;;;;;;;;9.11;91.98;98998.09;5114484;28;20034;-68
2024/02/27 02:53:20;;;;;;;;;;;;;;;9.16;91.96;99005.69;5114170;28;20006;-68
2024/02/27 02:55:50;;;;;;;;;;;;;;;9.17;92.58;99003.13;5114417;28;19931;-69
2024/02/27 02:58:19;;;;;;;;;;;;;;;9.19;92.11;99005.69;5114162;28;19928;-68
2024/02/27 03:00:47;;;;;;;;;;;;;;;9.22;92.81;99006.50;5130388;28;19924;-68
2024/02/27 03:03:16;;;;;;;;;;;;;;;9.26;92.46;99009.88;5114674;28;20422;-68
2024/02/27 03:05:44;;;;;;;;;;;;;;;9.26;92.28;98997.97;5114086;28;20297;-69
2024/02/27 03:08:13;;;;;;;;;;;;;;;9.29;92.83;99002.19;5096004;28;20052;-69
2024/02/27 03:10:41;;;;;;;;;;;;;;;9.30;92.57;99009.00;5114085;28;20054;-69
2024/02/27 03:13:11;;;;;;;;;;;;;;;9.30;92.15;99014.94;5129862;28;19931;-69
2024/02/27 03:15:39;;;;;;;;;;;;;;;9.32;92.23;99012.38;5114617;28;19923;-69
2024/02/27 03:18:08;;;;;;;;;;;;;;;9.31;92.22;99011.53;5114447;28;20377;-68
2024/02/27 03:20:37;;;;;;;;;;;;;;;9.33;92.50;99021.72;5114252;28;19930;-69
2024/02/27 03:23:06;;;;;;;;;;;;;;;9.31;92.82;99016.63;5113967;28;19924;-69
2024/02/27 03:25:34;;;;;;;;;;;;;;;9.34;92.67;99011.50;5092213;28;19946;-69
2024/02/27 03:28:03;;;;;;;;;;;;;;;9.32;92.74;99015.78;5093483;28;20431;-69
2024/02/27 03:30:33;;;;;;;;;;;;;;;9.32;92.03;99014.91;5094398;28;19993;-69
2024/02/27 03:33:02;;;;;;;;;;;;;;;9.31;92.16;99014.06;5076588;28;20289;-69
2024/02/27 03:35:30;;;;;;;;;;;;;;;9.30;92.27;99020.03;5130301;27;19931;-68
2024/02/27 03:37:59;;;;;;;;;;;;;;;9.30;92.41;99024.28;5097335;28;19929;-68
2024/02/27 03:40:27;;;;;;;;;;;;;;;9.29;92.38;99023.41;5097053;28;19928;-68
2024/02/27 03:42:56;;;;;;;;;;;;;;;9.30;92.07;99024.28;5097318;28;19930;-68
2024/02/27 03:45:24;;;;;;;;;;;;;;;9.31;92.13;99028.50;5097171;28;19923;-68
2024/02/27 03:47:54;;;;;;;;;;;;;;;9.34;92.17;99029.34;5097344;28;19946;-68
2024/02/27 03:50:23;;;;;;;;;;;;;;;9.35;92.12;99032.72;5097237;28;19924;-69
2024/02/27 03:52:51;;;;;;;;;;;;;;;9.33;92.53;99040.34;5096734;28;19924;-69
2024/02/27 03:55:20;;;;;;;;;;;;;;;9.31;92.23;99036.97;5097124;28;20263;-69
2024/02/27 03:57:48;;;;;;;;;;;;;;;9.30;92.30;99034.47;5096695;28;20027;-68
2024/02/27 04:00:16;;;;;;;;;;;;;;;9.27;92.40;99040.41;5096644;28;19924;-69
2024/02/27 04:02:44;;;;;;;;;;;;;;;9.26;92.20;99038.72;5096940;28;19928;-69
2024/02/27 04:05:14;;;;;;;;;;;;;;;9.25;92.35;99042.13;5096799;28;19924;-69
2024/02/27 04:07:43;;;;;;;;;;;;;;;9.23;92.20;99043.00;5096860;28;20035;-68
2024/02/27 04:10:12;;;;;;;;;;;;;;;9.19;92.40;99042.16;5096371;28;20279;-69
2024/02/27 04:12:40;;;;;;;;;;;;;;;9.18;92.74;99043.03;5096213;28;19924;-69
2024/02/27 04:15:09;;;;;;;;;;;;;;;9.16;92.32;99042.19;5095287;28;19924;-68
2024/02/27 04:17:38;;;;;;;;;;;;;;;9.15;92.50;99055.75;5095435;28;19939;-68
2024/02/27 04:20:07;;;;;;;;;;;;;;;9.14;92.30;99048.13;5096545;28;19924;-69
2024/02/27 04:22:37;;;;;;;;;;;;;;;9.11;92.18;99054.09;5096529;28;19924;-68
2024/02/27 04:25:06;;;;;;;;;;;;;;;9.06;92.41;99055.81;5102017;28;19924;-68
2024/02/27 04:27:35;;;;;;;;;;;;;;;9.05;92.52;99053.25;5116789;28;19923;-68
2024/02/27 04:30:05;;;;;;;;;;;;;;;9.02;92.73;99043.94;5116832;28;20385;-69
2024/02/27 04:32:33;;;;;;;;;;;;;;;9.04;92.61;99054.97;5116556;28;19927;-68
2024/02/27 04:35:02;;;;;;;;;;;;;;;9.01;92.57;99052.44;5098394;28;19931;-68
2024/02/27 04:37:31;;;;;;;;;;;;;;;8.97;92.65;99053.31;5116630;28;19924;-68
2024/02/27 04:40:00;;;;;;;;;;;;;;;8.94;92.65;99055.88;5098254;28;19939;-69
2024/02/27 04:42:29;;;;;;;;;;;;;;;8.91;92.89;99055.88;5116561;28;19973;-69
2024/02/27 04:44:57;;;;;;;;;;;;;;;8.91;93.43;99050.78;5116326;28;19930;-68
2024/02/27 04:47:26;;;;;;;;;;;;;;;8.91;92.63;99057.56;5116472;28;19977;-69
2024/02/27 04:49:54;;;;;;;;;;;;;;;8.89;92.70;99052.50;5116510;28;19924;-69
2024/02/27 04:52:23;;;;;;;;;;;;;;;8.85;93.38;99058.44;5097944;28;19928;-69
2024/02/27 04:54:51;;;;;;;;;;;;;;;8.87;92.65;99058.44;5115971;28;20351;-68
2024/02/27 04:57:21;;;;;;;;;;;;;;;8.81;93.38;99056.75;5097913;28;19923;-68
2024/02/27 04:59:50;;;;;;;;;;;;;;;8.74;93.37;99060.16;5116075;28;20266;-69
2024/02/27 05:02:20;;;;;;;;;;;;;;;8.63;93.26;99060.22;5116080;28;19924;-68
2024/02/27 05:04:49;;;;;;;;;;;;;;;8.57;92.82;99059.38;5097625;28;19923;-68
2024/02/27 05:07:17;;;;;;;;;;;;;;;8.48;93.06;99057.72;5115994;28;19928;-68
2024/02/27 05:09:46;;;;;;;;;;;;;;;8.39;92.93;99069.59;5115965;28;19928;-68
2024/02/27 05:12:16;;;;;;;;;;;;;;;8.38;92.59;99072.97;5132013;27;19980;-68
2024/02/27 05:14:47;;;;;;;;;;;;;;;8.37;92.86;99081.47;5097587;28;19934;-69
2024/02/27 05:17:15;;;;;;;;;;;;;;;8.30;92.06;99079.78;5116205;28;20365;-68
2024/02/27 05:19:43;;;;;;;;;;;;;;;8.23;91.98;99078.06;5115549;28;20437;-69
2024/02/27 05:22:12;;;;;;;;;;;;;;;8.18;91.45;99089.94;5115688;28;19924;-69
2024/02/27 05:24:40;;;;;;;;;;;;;;;8.18;91.82;99098.41;5131298;27;19924;-68
2024/02/27 05:27:09;;;;;;;;;;;;;;;8.10;92.00;99090.78;5115672;28;20023;-71
2024/02/27 05:29:37;;;;;;;;;;;;;;;8.06;91.68;99101.78;5131567;27;19924;-68
2024/02/27 05:32:09;;;;;;;;;;;;;;;8.06;91.46;99096.69;5115187;28;19973;-69
2024/02/27 05:34:37;;;;;;;;;;;;;;;8.01;91.40;99098.41;5115555;28;19924;-68
2024/02/27 05:37:06;;;;;;;;;;;;;;;7.95;92.18;99093.31;5115990;28;20268;-69
2024/02/27 05:39:34;;;;;;;;;;;;;;;7.92;91.44;99103.47;5131397;27;19928;-68
2024/02/27 05:42:03;;;;;;;;;;;;;;;7.93;91.44;99104.34;5115562;28;20285;-68
2024/02/27 05:44:31;;;;;;;;;;;;;;;7.94;91.23;99111.13;5115237;28;20455;-68
2024/02/27 05:47:00;;;;;;;;;;;;;;;7.93;91.12;99110.28;5131233;27;20033;-68
2024/02/27 05:49:29;;;;;;;;;;;;;;;7.94;91.67;99111.94;5115085;28;19935;-68
2024/02/27 05:51:58;;;;;;;;;;;;;;;7.97;92.05;99111.94;5115350;28;19923;-69
2024/02/27 05:54:26;;;;;;;;;;;;;;;7.97;91.81;99114.50;5114883;28;19931;-68
2024/02/27 05:56:55;;;;;;;;;;;;;;;7.99;91.49;99120.41;5114256;28;19924;-69
2024/02/27 05:59:23;;;;;;;;;;;;;;;7.97;91.78;99121.25;5115283;28;20334;-69
2024/02/27 06:01:52;;;;;;;;;;;;;;;7.96;92.33;99119.59;5079765;28;20390;-68
2024/02/27 06:04:20;;;;;;;;;;;;;;;7.95;91.75;99118.72;5114513;28;19924;-68
2024/02/27 06:06:50;;;;;;;;;;;;;;;7.94;92.78;99122.09;5115142;28;19924;-69
2024/02/27 06:09:20;;;;;;;;;;;;;;;7.93;92.42;99124.66;5114644;28;20022;-68
2024/02/27 06:11:48;;;;;;;;;;;;;;;7.96;91.87;99125.53;5079549;28;19924;-69
2024/02/27 06:14:17;;;;;;;;;;;;;;;8.02;91.82;99138.22;5095982;28;19993;-69
2024/02/27 06:16:45;;;;;;;;;;;;;;;8.03;92.47;99139.94;5096537;28;19973;-69
2024/02/27 06:19:13;;;;;;;;;;;;;;;8.06;92.36;99137.34;5114676;28;19973;-69
2024/02/27 06:24:29;;;;;;;;;;;;;;;8.10;91.80;99154.31;5114457;28;19947;-70
2024/02/27 06:26:58;;;;;;;;;;;;;;;8.18;92.24;99158.56;5115583;28;20309;-68
2024/02/27 06:29:26;;;;;;;;;;;;;;;8.26;92.73;99159.38;5114193;28;19969;-68
2024/02/27 06:31:55;;;;;;;;;;;;;;;8.32;92.70;99161.97;5114688;28;20030;-68
2024/02/27 06:34:23;;;;;;;;;;;;;;;8.34;92.75;99167.91;5114178;28;19936;-69
2024/02/27 06:36:53;;;;;;;;;;;;;;;8.38;92.90;99169.59;5114173;28;19924;-68
2024/02/27 06:39:22;;;;;;;;;;;;;;;8.42;92.17;99171.31;5096045;28;20297;-68
2024/02/27 06:41:52;;;;;;;;;;;;;;;8.45;92.85;99163.66;5114674;28;19972;-69
2024/02/27 06:44:20;;;;;;;;;;;;;;;8.51;92.66;99168.75;5095225;28;19924;-69
2024/02/27 06:46:49;;;;;;;;;;;;;;;8.54;92.55;99167.03;5114267;28;19924;-69
2024/02/27 06:49:17;;;;;;;;;;;;;;;8.60;92.58;99163.66;5095722;28;20442;-69
2024/02/27 06:51:51;;;;;;;;;;;;;;;8.65;92.76;99170.44;5114322;28;19973;-69
2024/02/27 06:54:19;;;;;;;;;;;;;;;8.74;92.94;99172.09;5114431;28;20026;-68
2024/02/27 06:56:49;;;;;;;;;;;;;;;8.74;91.95;99179.72;5114368;28;19930;-69
2024/02/27 06:59:19;;;;;;;;;;;;;;;8.80;92.86;99189.06;5114301;28;19931;-68
2024/02/27 07:01:47;;;;;;;;;;;;;;;8.85;92.75;99177.19;5114407;28;19969;-68
2024/02/27 07:04:17;;;;;;;;;;;;;;;8.85;92.19;99193.31;5113976;28;19923;-69
2024/02/27 07:06:47;;;;;;;;;;;;;;;8.81;92.41;99196.69;5114345;28;19927;-68
2024/02/27 07:09:16;;;;;;;;;;;;;;;8.84;92.36;99196.69;5098926;28;19923;-69
2024/02/27 07:11:44;;;;;;;;;;;;;;;8.84;92.53;99196.69;5118143;28;19963;-69
2024/02/27 07:14:13;;;;;;;;;;;;;;;8.87;92.68;99186.50;5117808;28;20289;-68
2024/02/27 07:16:43;;;;;;;;;;;;;;;8.89;92.69;99196.69;5118166;28;19928;-69
2024/02/27 07:19:12;;;;;;;;;;;;;;;8.93;92.67;99191.56;5100342;28;19923;-69
2024/02/27 07:21:40;;;;;;;;;;;;;;;8.98;92.01;99189.88;5118037;28;19923;-69
2024/02/27 07:24:09;;;;;;;;;;;;;;;9.02;92.19;99189.00;5117616;28;20378;-68
2024/02/27 07:26:37;;;;;;;;;;;;;;;9.06;92.33;99187.31;5117436;28;19963;-70
2024/02/27 07:29:06;;;;;;;;;;;;;;;9.07;92.14;99200.03;5116421;28;19930;-68
2024/02/27 07:31:35;;;;;;;;;;;;;;;9.11;92.49;99196.63;5099807;28;19934;-69
2024/02/27 07:34:05;;;;;;;;;;;;;;;9.15;91.97;99197.47;5117642;28;19931;-69
2024/02/27 07:36:35;;;;;;;;;;;;;;;9.19;92.07;99216.97;5117790;28;20378;-69
2024/02/27 07:39:03;;;;;;;;;;;;;;;9.20;91.72;99222.06;5133652;27;19947;-69
2024/02/27 07:41:32;;;;;;;;;;;;;;;9.22;92.27;99225.44;5098845;28;19924;-69
2024/02/27 07:44:01;;;;;;;;;;;;;;;9.21;91.47;99225.47;5117533;28;19958;-69
2024/02/27 07:46:33;;;;;;;;;;;;;;;9.21;91.94;99208.47;5099287;28;20374;-69
2024/02/27 07:49:01;;;;;;;;;;;;;;;9.24;91.34;99205.91;5117908;28;20281;-69
2024/02/27 07:51:32;;;;;;;;;;;;;;;9.29;91.42;99211.84;5117144;28;20365;-69
2024/02/27 07:54:00;;;;;;;;;;;;;;;9.34;91.40;99215.22;5100064;28;20373;-69
2024/02/27 07:56:31;;;;;;;;;;;;;;;9.35;91.57;99209.28;5117540;28;19924;-69
2024/02/27 07:58:59;;;;;;;;;;;;;;;9.41;91.64;99211.81;5117708;28;19924;-69
2024/02/27 08:01:29;;;;;;;;;;;;;;;9.47;91.74;99213.50;5117196;28;19924;-68
2024/02/27 08:03:58;;;;;;;;;;;;;;;9.54;91.83;99211.75;5117332;28;19924;-69
2024/02/27 08:06:27;;;;;;;;;;;;;;;9.60;91.48;99209.19;5115950;28;20019;-69
2024/02/27 08:08:58;;;;;;;;;;;;;;;9.68;91.21;99212.53;5115640;28;19924;-69
2024/02/27 08:11:26;;;;;;;;;;;;;;;9.79;91.21;99210.81;5117813;28;20322;-69
2024/02/27 08:13:55;;;;;;;;;;;;;;;9.90;91.48;99206.47;5116936;28;19931;-68
2024/02/27 08:16:23;;;;;;;;;;;;;;;10.01;91.36;99210.66;5115577;28;20010;-69
2024/02/27 08:18:52;;;;;;;;;;;;;;;10.13;91.23;99214.84;5115074;28;20373;-69
2024/02/27 08:21:20;;;;;;;;;;;;;;;10.25;91.27;99230.06;5117232;28;19977;-70
2024/02/27 08:23:49;;;;;;;;;;;;;;;10.40;91.12;99229.97;5116841;28;19928;-70
2024/02/27 08:26:18;;;;;;;;;;;;;;;10.52;91.30;99224.78;5116484;28;19930;-69
2024/02/27 08:28:47;;;;;;;;;;;;;;;10.67;91.03;99224.66;5117135;28;19924;-69
2024/02/27 08:31:15;;;;;;;;;;;;;;;10.87;91.01;99221.09;5116702;28;20388;-69
2024/02/27 08:33:44;;;;;;;;;;;;;;;11.06;90.83;99222.59;5115571;28;19924;-69
2024/02/27 08:36:13;;;;;;;;;;;;;;;11.33;90.69;99218.03;5115023;28;20337;-69
2024/02/27 08:38:43;;;;;;;;;;;;;;;11.60;90.40;99221.97;5116631;28;19923;-69
2024/02/27 08:41:12;;;;;;;;;;;;;;;11.77;90.07;99220.09;5115345;28;19924;-69
2024/02/27 08:43:43;;;;;;;;;;;;;;;12.01;89.87;99226.59;5116432;28;19924;-69
2024/02/27 08:46:15;;;;;;;;;;;;;;;12.27;89.68;99226.19;5116421;28;20267;-69
2024/02/27 08:48:44;;;;;;;;;;;;;;;12.47;89.04;99221.63;5115130;28;19928;-69
2024/02/27 08:51:13;;;;;;;;;;;;;;;12.71;88.40;99221.25;5116410;28;19969;-70
2024/02/27 08:53:41;;;;;;;;;;;;;;;12.95;87.51;99223.38;5114763;28;19928;-70
2024/02/27 08:56:09;;;;;;;;;;;;;;;13.09;86.35;99221.44;5116172;28;19963;-69
2024/02/27 08:58:38;;;;;;;;;;;;;;;13.24;85.47;99221.19;5114816;28;20018;-70
2024/02/27 09:01:08;;;;;;;;;;;;;;;13.30;83.72;99221.03;5116459;28;19966;-70
2024/02/27 09:03:36;;;;;;;;;;;;;;;13.42;81.48;99220.81;5116444;28;19950;-70
2024/02/27 09:06:05;;;;;;;;;;;;;;;13.61;80.40;99223.00;5116020;28;19925;-69
2024/02/27 09:08:33;;;;;;;;;;;;;;;13.69;78.24;99223.69;5116021;28;19975;-69
2024/02/27 09:11:02;;;;;;;;;;;;;;;13.81;77.11;99224.28;5115637;28;19931;-69
2024/02/27 09:13:33;;;;;;;;;;;;;;;13.93;76.07;99223.19;5115616;28;19924;-69
2024/02/27 09:16:01;;;;;;;;;;;;;;;14.04;74.83;99219.50;5115620;28;19924;-69
2024/02/27 09:18:31;;;;;;;;;;;;;;;14.22;74.27;99225.94;5115458;28;19924;-69
2024/02/27 09:21:01;;;;;;;;;;;;;;;14.33;73.89;99226.56;5116079;28;19931;-69
2024/02/27 09:23:30;;;;;;;;;;;;;;;14.45;73.14;99223.72;5115887;28;19924;-69
2024/02/27 09:25:58;;;;;;;;;;;;;;;14.60;72.40;99228.50;5115062;28;19930;-69
2024/02/27 09:28:27;;;;;;;;;;;;;;;14.78;71.68;99219.47;5113322;28;20021;-70
2024/02/27 09:30:55;;;;;;;;;;;;;;;14.95;70.60;99221.63;5115234;28;19923;-70
2024/02/27 09:33:23;;;;;;;;;;;;;;;15.05;69.92;99220.50;5115578;28;19923;-70
2024/02/27 09:35:53;;;;;;;;;;;;;;;15.22;69.58;99218.31;5115236;28;19924;-70
2024/02/27 09:38:22;;;;;;;;;;;;;;;15.35;68.91;99217.13;5115037;28;19923;-69
2024/02/27 09:40:54;;;;;;;;;;;;;;;15.34;68.00;99223.97;5115042;28;19923;-70
2024/02/27 09:43:23;;;;;;;;;;;;;;;15.51;68.61;99220.13;5115443;28;19924;-69
2024/02/27 09:45:52;;;;;;;;;;;;;;;15.58;68.08;99219.91;5115245;28;19973;-69
2024/02/27 09:48:27;;;;;;;;;;;;;;;15.64;68.22;99230.06;5113764;28;20292;-69
2024/02/27 09:50:58;;;;;;;;;;;;;;;15.68;67.29;99223.91;5115233;28;19973;-70
2024/02/27 09:53:27;;;;;;;;;;;;;;;15.87;67.29;99230.22;5114047;28;19975;-69
2024/02/27 09:55:56;;;;;;;;;;;;;;;16.04;67.39;99227.16;5115629;28;20323;-70
2024/02/27 09:58:25;;;;;;;;;;;;;;;16.25;67.66;99231.63;5115170;28;19924;-70
2024/02/27 10:00:59;;;;;;;;;;;;;;;16.31;67.04;99226.31;5115088;28;20258;-70
2024/02/27 10:03:31;;;;;;;;;;;;;;;16.22;66.64;99239.44;5115068;28;19927;-70
2024/02/27 10:06:00;;;;;;;;;;;;;;;16.29;66.92;99232.41;5114771;28;20010;-69
2024/02/27 10:08:30;;;;;;;;;;;;;;;16.29;66.64;99232.41;5115017;28;19973;-69
2024/02/27 10:10:59;;;;;;;;;;;;;;;16.36;66.76;99236.47;5114934;28;19967;-69
2024/02/27 10:13:27;;;;;;;;;;;;;;;16.44;67.15;99242.19;5115011;28;20292;-69
2024/02/27 10:15:55;;;;;;;;;;;;;;;16.44;67.28;99239.63;5114252;28;20020;-69
2024/02/27 10:18:24;;;;;;;;;;;;;;;16.32;67.03;99242.59;5113700;28;19923;-69
2024/02/27 10:20:53;;;;;;;;;;;;;;;16.22;66.97;99236.88;5113516;28;19930;-69
2024/02/27 10:23:23;;;;;;;;;;;;;;;16.14;67.30;99238.00;5114778;28;19931;-69
2024/02/27 10:25:52;;;;;;;;;;;;;;;16.09;67.60;99246.72;5113078;28;19924;-69
2024/02/27 10:28:20;;;;;;;;;;;;;;;16.05;67.27;99234.81;5114632;28;20399;-69
2024/02/27 10:30:49;;;;;;;;;;;;;;;16.09;67.73;99239.00;5114778;28;19924;-69
2024/02/27 10:33:17;;;;;;;;;;;;;;;16.00;67.74;99234.09;5114350;28;19973;-69
2024/02/27 10:35:47;;;;;;;;;;;;;;;16.04;67.56;99230.56;5114292;28;20342;-69
2024/02/27 10:38:19;;;;;;;;;;;;;;;16.15;67.47;99230.22;5114697;28;19924;-69
2024/02/27 10:40:49;;;;;;;;;;;;;;;16.28;67.40;99225.56;5114766;28;20014;-69
2024/02/27 10:43:19;;;;;;;;;;;;;;;16.27;67.03;99224.69;5118110;28;20374;-69
2024/02/27 10:45:48;;;;;;;;;;;;;;;16.25;66.54;99230.78;5118730;28;19928;-69
2024/02/27 10:48:17;;;;;;;;;;;;;;;16.29;66.60;99222.09;5118475;28;20010;-69
2024/02/27 10:50:57;;;;;;;;;;;;;;;16.24;66.05;99221.38;5117451;28;19938;-69
2024/02/27 10:53:27;;;;;;;;;;;;;;;16.19;65.81;99226.69;5118610;28;19969;-69
2024/02/27 10:55:58;;;;;;;;;;;;;;;16.17;64.75;99235.34;5118092;28;20396;-69
2024/02/27 10:58:27;;;;;;;;;;;;;;;16.19;64.69;99236.13;5118155;28;19923;-69
2024/02/27 11:00:56;;;;;;;;;;;;;;;16.19;64.02;99236.13;5118323;28;19928;-69
2024/02/27 11:03:25;;;;;;;;;;;;;;;16.16;63.60;99236.22;5116829;28;20385;-69
2024/02/27 11:05:54;;;;;;;;;;;;;;;16.20;63.59;99227.50;5118363;28;19955;-69
2024/02/27 11:08:23;;;;;;;;;;;;;;;16.23;63.89;99233.41;5117018;28;19923;-69
2024/02/27 11:10:51;;;;;;;;;;;;;;;16.32;64.40;99227.13;5117908;27;19928;-69
2024/02/27 11:13:23;;;;;;;;;;;;;;;16.29;63.97;99227.25;5118219;28;19923;-69
2024/02/27 11:15:53;;;;;;;;;;;;;;;16.25;64.62;99223.06;5118529;28;19927;-69
2024/02/27 11:18:26;;;;;;;;;;;;;;;16.21;64.63;99229.22;5116803;28;19924;-69
2024/02/27 11:20:55;;;;;;;;;;;;;;;16.15;64.58;99229.41;5116848;28;20332;-69
2024/02/27 11:23:24;;;;;;;;;;;;;;;16.03;64.09;99222.88;5118037;28;19924;-69
2024/02/27 11:25:53;;;;;;;;;;;;;;;16.02;64.00;99236.66;5117510;28;19955;-69
2024/02/27 11:28:23;;;;;;;;;;;;;;;16.01;63.68;99233.22;5117787;28;19924;-69
2024/02/27 11:30:52;;;;;;;;;;;;;;;16.02;62.98;99228.94;5116371;28;20289;-69
2024/02/27 11:33:21;;;;;;;;;;;;;;;16.00;63.38;99236.69;5117893;28;19924;-69
2024/02/27 11:35:50;;;;;;;;;;;;;;;15.98;64.34;99227.34;5117649;28;19931;-69
2024/02/27 11:38:19;;;;;;;;;;;;;;;16.01;64.21;99240.94;5116567;28;20385;-69
2024/02/27 11:40:48;;;;;;;;;;;;;;;16.10;64.48;99245.81;5117405;28;19931;-69
2024/02/27 11:43:20;;;;;;;;;;;;;;;16.19;64.89;99242.13;5117919;28;19924;-69
2024/02/27 11:45:50;;;;;;;;;;;;;;;16.27;61.46;99236.75;5115851;28;20036;-69
2024/02/27 11:48:38;;;;;;;;;;;;;;;16.44;59.51;99237.06;5117918;28;19931;-69
2024/02/27 11:51:07;;;;;;;;;;;;;;;16.64;59.21;99229.56;5117132;28;19924;-68
2024/02/27 11:53:37;;;;;;;;;;;;;;;16.78;58.20;99229.97;5116346;28;19976;-68
2024/02/27 11:56:07;;;;;;;;;;;;;;;16.83;57.43;99235.81;5117128;28;20471;-68
2024/02/27 11:58:35;;;;;;;;;;;;;;;16.63;57.84;99228.72;5115926;28;20290;-69
2024/02/27 12:01:07;;;;;;;;;;;;;;;16.56;58.13;99231.53;5117318;28;19930;-70
2024/02/27 12:03:36;;;;;;;;;;;;;;;16.46;58.30;99238.69;5117088;28;19977;-68
2024/02/27 12:06:07;;;;;;;;;;;;;;;16.32;58.51;99243.44;5117243;28;20050;-68
2024/02/27 12:08:44;;;;;;;;;;;;;;;16.21;58.32;99240.34;5117581;28;20022;-68
2024/02/27 12:11:13;;;;;;;;;;;;;;;16.13;58.75;99241.47;5116028;28;19939;-68
2024/02/27 12:13:41;;;;;;;;;;;;;;;16.10;58.32;99232.94;5113869;28;19924;-68
2024/02/27 12:16:11;;;;;;;;;;;;;;;16.09;58.83;99243.31;5099378;28;19927;-68
2024/02/27 12:18:40;;;;;;;;;;;;;;;16.06;58.96;99236.50;5095534;28;19924;-68
2024/02/27 12:21:10;;;;;;;;;;;;;;;16.05;58.49;99234.00;5096890;28;20393;-69
2024/02/27 12:23:40;;;;;;;;;;;;;;;16.07;58.60;99227.91;5096178;28;19951;-69
2024/02/27 12:26:08;;;;;;;;;;;;;;;16.09;58.49;99231.28;5096068;28;19932;-68
2024/02/27 12:28:37;;;;;;;;;;;;;;;16.14;58.42;99228.56;5096368;28;19924;-69
2024/02/27 12:31:05;;;;;;;;;;;;;;;16.20;58.38;99227.50;5096284;28;19925;-69
2024/02/27 12:33:36;;;;;;;;;;;;;;;16.22;58.71;99230.91;5096078;28;20278;-70
2024/02/27 12:36:05;;;;;;;;;;;;;;;16.19;58.51;99220.69;5096341;28;19924;-68
2024/02/27 12:38:36;;;;;;;;;;;;;;;16.13;58.88;99231.16;5096048;28;19993;-69
2024/02/27 12:41:05;;;;;;;;;;;;;;;16.16;59.36;99231.06;5095004;28;19931;-69
2024/02/27 12:43:34;;;;;;;;;;;;;;;16.17;59.42;99228.47;5096106;28;19928;-69
2024/02/27 12:46:03;;;;;;;;;;;;;;;16.17;59.76;99228.47;5094722;28;20294;-69
2024/02/27 12:48:31;;;;;;;;;;;;;;;16.19;59.89;99231.00;5094283;28;19967;-68
2024/02/27 12:51:04;;;;;;;;;;;;;;;16.13;58.89;99231.16;5096003;28;19924;-68
2024/02/27 12:53:33;;;;;;;;;;;;;;;16.08;59.22;99224.44;5095985;28;19970;-68
2024/02/27 12:56:03;;;;;;;;;;;;;;;16.05;59.02;99223.69;5096489;28;19970;-69
2024/02/27 12:58:32;;;;;;;;;;;;;;;16.05;59.21;99229.66;5094185;28;20289;-68
2024/02/27 13:01:01;;;;;;;;;;;;;;;16.14;59.52;99227.72;5095836;28;19924;-68
2024/02/27 13:03:30;;;;;;;;;;;;;;;16.19;59.26;99215.53;5094063;28;19935;-68
2024/02/27 13:06:02;;;;;;;;;;;;;;;16.26;59.02;99227.34;5094235;28;19924;-69